VLG454 LEBL-LPPT
Flight info
| Callsign | VLG454 |
|---|---|
| Flight time | 1h 35m |
| Altitude | 37000 |
| Route | SENIA DCT DORMI DCT CRETA DCT NEXAS DCT DISVU DCT ADUXO N975 PALIO DCT AKOKI DCT GOTOR DCT TLD DCT NATPA DCT MELON DCT CCS DCT ELVAR DCT UPULO |
| Aircraft | A320/M-SDE3FGHIRWY/LB1 |
Departure
| Time | 2026-05-06 20:29 |
|---|---|
| Airport | Josep Tarradellas Barcelona-El Prat Airport (LEBL) |
Arrival
| Time | 2026-05-06 22:05 |
|---|---|
| Airport | Lisbon Humberto Delgado Airport (LPPT) |
| Time | Latitude | Longitude | Altitude | Speed | Heading |
|---|---|---|---|---|---|
| 2026-05-06 20:28 | 41.29081 | 2.09872 | 19 ft | 11 kts | 216° |
| 2026-05-06 20:29 | 41.28994 | 2.09652 | 20 ft | 61 kts | 245° |
| 2026-05-06 20:29 | 41.28690 | 2.08772 | 21 ft | 144 kts | 245° |
| 2026-05-06 20:29 | 41.28210 | 2.07370 | 461 ft | 173 kts | 245° |
| 2026-05-06 20:29 | 41.27520 | 2.06082 | 1434 ft | 173 kts | 212° |
| 2026-05-06 20:30 | 41.26341 | 2.05724 | 1999 ft | 184 kts | 182° |
| 2026-05-06 20:30 | 41.23510 | 2.05725 | 2857 ft | 217 kts | 182° |
| 2026-05-06 20:30 | 41.21992 | 2.05725 | 3676 ft | 220 kts | 182° |
| 2026-05-06 20:31 | 41.20450 | 2.05714 | 4462 ft | 224 kts | 182° |
| 2026-05-06 20:31 | 41.18881 | 2.05692 | 5221 ft | 228 kts | 182° |
| 2026-05-06 20:31 | 41.17307 | 2.05419 | 5971 ft | 232 kts | 200° |
| 2026-05-06 20:31 | 41.15792 | 2.04489 | 6506 ft | 246 kts | 209° |
| 2026-05-06 20:32 | 41.14257 | 2.03440 | 7278 ft | 250 kts | 210° |
| 2026-05-06 20:32 | 41.12704 | 2.02371 | 8114 ft | 253 kts | 209° |
| 2026-05-06 20:32 | 41.11135 | 2.01293 | 8953 ft | 256 kts | 210° |
| 2026-05-06 20:32 | 41.10082 | 2.00571 | 9500 ft | 258 kts | 210° |
| 2026-05-06 20:33 | 41.08511 | 1.99345 | 10072 ft | 270 kts | 223° |
| 2026-05-06 20:33 | 41.07326 | 1.97327 | 10347 ft | 288 kts | 249° |
| 2026-05-06 20:33 | 41.06784 | 1.94677 | 10597 ft | 310 kts | 259° |
| 2026-05-06 20:33 | 41.06326 | 1.91779 | 10814 ft | 333 kts | 259° |
| 2026-05-06 20:34 | 41.05845 | 1.88684 | 11150 ft | 349 kts | 259° |
| 2026-05-06 20:34 | 41.05347 | 1.85504 | 11772 ft | 355 kts | 259° |
| 2026-05-06 20:34 | 41.04837 | 1.82284 | 12490 ft | 359 kts | 259° |
| 2026-05-06 20:34 | 41.04315 | 1.79027 | 13207 ft | 363 kts | 258° |
| 2026-05-06 20:35 | 41.03785 | 1.75732 | 13886 ft | 367 kts | 258° |
| 2026-05-06 20:35 | 41.03253 | 1.72453 | 14513 ft | 370 kts | 258° |
| 2026-05-06 20:35 | 41.02710 | 1.69111 | 15180 ft | 372 kts | 258° |
| 2026-05-06 20:35 | 41.02165 | 1.65765 | 15844 ft | 373 kts | 258° |
| 2026-05-06 20:36 | 41.01617 | 1.62398 | 16502 ft | 375 kts | 258° |
| 2026-05-06 20:36 | 41.01067 | 1.59016 | 17130 ft | 376 kts | 258° |
| 2026-05-06 20:36 | 41.00519 | 1.55626 | 17762 ft | 378 kts | 258° |
| 2026-05-06 20:36 | 40.99964 | 1.52215 | 18370 ft | 380 kts | 258° |
| 2026-05-06 20:37 | 40.99403 | 1.48783 | 18835 ft | 384 kts | 258° |
| 2026-05-06 20:37 | 40.98838 | 1.45324 | 19338 ft | 386 kts | 258° |
| 2026-05-06 20:37 | 40.98266 | 1.41843 | 19863 ft | 387 kts | 258° |
| 2026-05-06 20:37 | 40.97691 | 1.38357 | 20387 ft | 389 kts | 258° |
| 2026-05-06 20:38 | 40.97111 | 1.34851 | 20902 ft | 390 kts | 258° |
| 2026-05-06 20:38 | 40.96527 | 1.31330 | 21412 ft | 392 kts | 258° |
| 2026-05-06 20:38 | 40.95949 | 1.27850 | 21907 ft | 393 kts | 258° |
| 2026-05-06 20:38 | 40.95361 | 1.24312 | 22395 ft | 395 kts | 258° |
| 2026-05-06 20:39 | 40.94770 | 1.20758 | 22869 ft | 396 kts | 258° |
| 2026-05-06 20:39 | 40.94178 | 1.17191 | 23331 ft | 398 kts | 258° |
| 2026-05-06 20:39 | 40.93582 | 1.13614 | 23745 ft | 400 kts | 258° |
| 2026-05-06 20:39 | 40.92981 | 1.10013 | 24093 ft | 402 kts | 258° |
| 2026-05-06 20:40 | 40.92376 | 1.06396 | 24475 ft | 403 kts | 257° |
| 2026-05-06 20:40 | 40.91770 | 1.02772 | 24862 ft | 404 kts | 257° |
| 2026-05-06 20:40 | 40.91160 | 0.99140 | 25246 ft | 405 kts | 257° |
| 2026-05-06 20:40 | 40.90546 | 0.95503 | 25608 ft | 406 kts | 257° |
| 2026-05-06 20:41 | 40.89928 | 0.91856 | 25967 ft | 406 kts | 256° |
| 2026-05-06 20:41 | 40.89311 | 0.88209 | 26334 ft | 407 kts | 256° |
| 2026-05-06 20:41 | 40.88694 | 0.84558 | 26686 ft | 408 kts | 256° |
| 2026-05-06 20:41 | 40.88074 | 0.80902 | 27035 ft | 408 kts | 256° |
| 2026-05-06 20:42 | 40.87449 | 0.77239 | 27382 ft | 409 kts | 256° |
| 2026-05-06 20:42 | 40.86956 | 0.73527 | 27693 ft | 412 kts | 263° |
| 2026-05-06 20:42 | 40.86891 | 0.69728 | 27980 ft | 415 kts | 268° |
| 2026-05-06 20:42 | 40.86929 | 0.65925 | 28409 ft | 413 kts | 268° |
| 2026-05-06 20:43 | 40.86966 | 0.62138 | 28885 ft | 411 kts | 268° |
| 2026-05-06 20:43 | 40.86998 | 0.58371 | 29385 ft | 409 kts | 267° |
| 2026-05-06 20:43 | 40.87024 | 0.54636 | 29898 ft | 406 kts | 267° |
| 2026-05-06 20:43 | 40.87049 | 0.50919 | 30348 ft | 403 kts | 267° |
| 2026-05-06 20:44 | 40.87073 | 0.47218 | 30742 ft | 401 kts | 267° |
| 2026-05-06 20:44 | 40.87092 | 0.43542 | 31113 ft | 400 kts | 267° |
| 2026-05-06 20:44 | 40.87108 | 0.39873 | 31472 ft | 399 kts | 267° |
| 2026-05-06 20:44 | 40.87122 | 0.36218 | 31806 ft | 399 kts | 267° |
| 2026-05-06 20:45 | 40.87135 | 0.32542 | 32055 ft | 401 kts | 267° |
| 2026-05-06 20:45 | 40.87152 | 0.28863 | 32393 ft | 401 kts | 267° |
| 2026-05-06 20:45 | 40.87173 | 0.25183 | 32728 ft | 400 kts | 267° |
| 2026-05-06 20:45 | 40.87193 | 0.21510 | 33087 ft | 399 kts | 267° |
| 2026-05-06 20:46 | 40.87207 | 0.17901 | 33452 ft | 398 kts | 267° |
| 2026-05-06 20:46 | 40.87216 | 0.14208 | 33836 ft | 396 kts | 267° |
| 2026-05-06 20:46 | 40.87223 | 0.10619 | 34157 ft | 395 kts | 267° |
| 2026-05-06 20:46 | 40.87230 | 0.06982 | 34410 ft | 396 kts | 267° |
| 2026-05-06 20:47 | 40.87238 | 0.03340 | 34652 ft | 396 kts | 267° |
| 2026-05-06 20:47 | 40.87244 | -0.00305 | 34883 ft | 397 kts | 267° |
| 2026-05-06 20:47 | 40.87251 | -0.03963 | 35069 ft | 399 kts | 267° |
| 2026-05-06 20:47 | 40.87255 | -0.07643 | 35255 ft | 401 kts | 267° |
| 2026-05-06 20:48 | 40.87257 | -0.11332 | 35470 ft | 402 kts | 267° |
| 2026-05-06 20:48 | 40.87257 | -0.15026 | 35692 ft | 402 kts | 267° |
| 2026-05-06 20:48 | 40.87254 | -0.18725 | 35913 ft | 403 kts | 267° |
| 2026-05-06 20:48 | 40.87253 | -0.22425 | 36127 ft | 404 kts | 267° |
| 2026-05-06 20:49 | 40.87253 | -0.26137 | 36327 ft | 404 kts | 268° |
| 2026-05-06 20:49 | 40.87254 | -0.29855 | 36524 ft | 405 kts | 268° |
| 2026-05-06 20:49 | 40.87253 | -0.33576 | 36720 ft | 405 kts | 268° |
| 2026-05-06 20:49 | 40.87248 | -0.37307 | 36938 ft | 406 kts | 268° |
| 2026-05-06 20:50 | 40.87242 | -0.41038 | 36986 ft | 407 kts | 268° |
| 2026-05-06 20:50 | 40.87227 | -0.48516 | 36990 ft | 407 kts | 267° |
| 2026-05-06 20:51 | 40.87205 | -0.55996 | 36990 ft | 407 kts | 267° |
| 2026-05-06 20:51 | 40.87183 | -0.63427 | 36994 ft | 407 kts | 267° |
| 2026-05-06 20:52 | 40.87153 | -0.70901 | 36995 ft | 407 kts | 267° |
| 2026-05-06 20:52 | 40.86982 | -0.78373 | 37005 ft | 405 kts | 260° |
| 2026-05-06 20:53 | 40.85401 | -0.85488 | 36996 ft | 404 kts | 249° |
| 2026-05-06 20:53 | 40.83458 | -0.92468 | 36999 ft | 405 kts | 249° |
| 2026-05-06 20:54 | 40.81527 | -0.99455 | 37002 ft | 405 kts | 249° |
| 2026-05-06 20:54 | 40.79606 | -1.06394 | 36999 ft | 405 kts | 249° |
| 2026-05-06 20:55 | 40.77662 | -1.13374 | 36995 ft | 405 kts | 249° |
| 2026-05-06 20:55 | 40.75706 | -1.20347 | 36994 ft | 405 kts | 249° |
| 2026-05-06 20:56 | 40.73747 | -1.27323 | 36989 ft | 406 kts | 249° |
| 2026-05-06 20:56 | 40.71788 | -1.34303 | 36992 ft | 405 kts | 249° |
| 2026-05-06 20:57 | 40.69836 | -1.41241 | 36998 ft | 406 kts | 249° |
| 2026-05-06 20:57 | 40.67870 | -1.48212 | 36997 ft | 406 kts | 249° |
| 2026-05-06 20:58 | 40.65895 | -1.55178 | 36992 ft | 407 kts | 249° |
| 2026-05-06 20:58 | 40.63911 | -1.62175 | 36988 ft | 409 kts | 249° |
| 2026-05-06 20:59 | 40.61920 | -1.69182 | 36985 ft | 409 kts | 249° |
| 2026-05-06 20:59 | 40.59923 | -1.76188 | 36986 ft | 409 kts | 249° |
| 2026-05-06 21:00 | 40.57920 | -1.83189 | 36985 ft | 408 kts | 249° |
| 2026-05-06 21:00 | 40.55915 | -1.90184 | 36982 ft | 408 kts | 249° |
| 2026-05-06 21:01 | 40.53912 | -1.97142 | 36978 ft | 412 kts | 249° |
| 2026-05-06 21:01 | 40.51854 | -2.04258 | 36964 ft | 413 kts | 249° |
| 2026-05-06 21:02 | 40.49811 | -2.11322 | 36965 ft | 413 kts | 249° |
| 2026-05-06 21:02 | 40.47768 | -2.18375 | 36949 ft | 413 kts | 249° |
| 2026-05-06 21:03 | 40.45725 | -2.25390 | 36949 ft | 413 kts | 249° |
| 2026-05-06 21:03 | 40.43664 | -2.32440 | 36940 ft | 414 kts | 249° |
| 2026-05-06 21:04 | 40.41595 | -2.39510 | 36943 ft | 415 kts | 249° |
| 2026-05-06 21:04 | 40.39517 | -2.46586 | 36931 ft | 415 kts | 249° |
| 2026-05-06 21:05 | 40.37429 | -2.53662 | 36930 ft | 415 kts | 250° |
| 2026-05-06 21:05 | 40.35807 | -2.60888 | 36932 ft | 416 kts | 253° |
| 2026-05-06 21:06 | 40.34236 | -2.68184 | 36931 ft | 416 kts | 254° |
| 2026-05-06 21:06 | 40.32653 | -2.75488 | 36924 ft | 416 kts | 254° |
| 2026-05-06 21:07 | 40.31065 | -2.82790 | 36928 ft | 416 kts | 254° |
| 2026-05-06 21:07 | 40.29463 | -2.90097 | 36925 ft | 416 kts | 253° |
| 2026-05-06 21:08 | 40.27869 | -2.97335 | 36925 ft | 416 kts | 253° |
| 2026-05-06 21:08 | 40.26262 | -3.04626 | 36927 ft | 416 kts | 253° |
| 2026-05-06 21:09 | 40.24652 | -3.11907 | 36919 ft | 417 kts | 254° |
| 2026-05-06 21:09 | 40.23034 | -3.19191 | 36924 ft | 417 kts | 253° |
| 2026-05-06 21:10 | 40.21410 | -3.26475 | 36916 ft | 417 kts | 253° |
| 2026-05-06 21:10 | 40.19788 | -3.33762 | 36917 ft | 417 kts | 253° |
| 2026-05-06 21:11 | 40.18167 | -3.41033 | 36915 ft | 417 kts | 253° |
| 2026-05-06 21:11 | 40.16538 | -3.48312 | 36914 ft | 416 kts | 253° |
| 2026-05-06 21:12 | 40.14906 | -3.55569 | 36913 ft | 416 kts | 253° |
| 2026-05-06 21:12 | 40.13276 | -3.62781 | 36913 ft | 416 kts | 253° |
| 2026-05-06 21:13 | 40.11626 | -3.70037 | 36915 ft | 416 kts | 253° |
| 2026-05-06 21:13 | 40.09977 | -3.77286 | 36900 ft | 416 kts | 253° |
| 2026-05-06 21:14 | 40.08335 | -3.84493 | 36897 ft | 416 kts | 253° |
| 2026-05-06 21:14 | 40.06675 | -3.91737 | 36895 ft | 416 kts | 253° |
| 2026-05-06 21:15 | 40.05010 | -3.98968 | 36899 ft | 416 kts | 253° |
| 2026-05-06 21:15 | 40.03342 | -4.06194 | 36900 ft | 416 kts | 253° |
| 2026-05-06 21:16 | 40.01673 | -4.13416 | 36892 ft | 416 kts | 253° |
| 2026-05-06 21:16 | 39.99998 | -4.20637 | 36892 ft | 416 kts | 253° |
| 2026-05-06 21:17 | 39.98315 | -4.27861 | 36897 ft | 416 kts | 253° |
| 2026-05-06 21:17 | 39.96638 | -4.35081 | 36895 ft | 416 kts | 253° |
| 2026-05-06 21:18 | 39.95120 | -4.42361 | 36891 ft | 416 kts | 255° |
| 2026-05-06 21:18 | 39.93702 | -4.49622 | 36892 ft | 416 kts | 255° |
| 2026-05-06 21:19 | 39.92247 | -4.56931 | 36894 ft | 416 kts | 255° |
| 2026-05-06 21:19 | 39.90762 | -4.64224 | 36890 ft | 417 kts | 254° |
| 2026-05-06 21:20 | 39.89257 | -4.71529 | 36891 ft | 417 kts | 254° |
| 2026-05-06 21:20 | 39.87749 | -4.78815 | 36886 ft | 417 kts | 254° |
| 2026-05-06 21:21 | 39.86239 | -4.86100 | 36886 ft | 417 kts | 254° |
| 2026-05-06 21:21 | 39.84977 | -4.92159 | 36885 ft | 417 kts | 254° |
| 2026-05-06 21:22 | 39.83215 | -5.00621 | 36882 ft | 416 kts | 254° |
| 2026-05-06 21:22 | 39.81955 | -5.06680 | 36882 ft | 416 kts | 254° |
| 2026-05-06 21:23 | 39.80437 | -5.13947 | 36882 ft | 416 kts | 254° |
| 2026-05-06 21:23 | 39.78907 | -5.21204 | 36876 ft | 416 kts | 254° |
| 2026-05-06 21:24 | 39.77378 | -5.28461 | 36880 ft | 416 kts | 254° |
| 2026-05-06 21:24 | 39.75848 | -5.35724 | 36876 ft | 417 kts | 253° |
| 2026-05-06 21:25 | 39.74311 | -5.42987 | 36874 ft | 417 kts | 253° |
| 2026-05-06 21:25 | 39.72760 | -5.50252 | 36876 ft | 417 kts | 253° |
| 2026-05-06 21:26 | 39.71212 | -5.57512 | 36877 ft | 417 kts | 253° |
| 2026-05-06 21:26 | 39.69660 | -5.64769 | 36873 ft | 417 kts | 253° |
| 2026-05-06 21:27 | 39.68101 | -5.72013 | 36884 ft | 417 kts | 253° |
| 2026-05-06 21:27 | 39.66542 | -5.79237 | 36871 ft | 419 kts | 253° |
| 2026-05-06 21:28 | 39.64967 | -5.86507 | 36876 ft | 418 kts | 253° |
| 2026-05-06 21:28 | 39.63385 | -5.93773 | 36872 ft | 418 kts | 253° |
| 2026-05-06 21:29 | 39.61793 | -6.01035 | 36869 ft | 418 kts | 253° |
| 2026-05-06 21:29 | 39.60204 | -6.08304 | 36871 ft | 418 kts | 253° |
| 2026-05-06 21:30 | 39.58615 | -6.15573 | 36872 ft | 419 kts | 253° |
| 2026-05-06 21:30 | 39.57024 | -6.22798 | 36874 ft | 420 kts | 253° |
| 2026-05-06 21:31 | 39.55418 | -6.30075 | 36874 ft | 420 kts | 253° |
| 2026-05-06 21:31 | 39.53807 | -6.37351 | 36872 ft | 420 kts | 253° |
| 2026-05-06 21:32 | 39.52030 | -6.44541 | 36870 ft | 419 kts | 245° |
| 2026-05-06 21:32 | 39.48145 | -6.54703 | 36874 ft | 421 kts | 243° |
| 2026-05-06 21:33 | 39.45548 | -6.61489 | 36877 ft | 421 kts | 243° |
| 2026-05-06 21:33 | 39.42961 | -6.68226 | 36875 ft | 421 kts | 243° |
| 2026-05-06 21:34 | 39.40344 | -6.75004 | 36875 ft | 421 kts | 243° |
| 2026-05-06 21:34 | 39.37729 | -6.81771 | 36863 ft | 421 kts | 243° |
| 2026-05-06 21:35 | 39.35111 | -6.88545 | 36885 ft | 421 kts | 243° |
| 2026-05-06 21:35 | 39.32490 | -6.95310 | 36882 ft | 421 kts | 243° |
| 2026-05-06 21:36 | 39.29856 | -7.02073 | 36893 ft | 421 kts | 243° |
| 2026-05-06 21:36 | 39.27212 | -7.08837 | 36893 ft | 421 kts | 243° |
| 2026-05-06 21:37 | 39.24589 | -7.15553 | 36899 ft | 421 kts | 243° |
| 2026-05-06 21:37 | 39.21952 | -7.22311 | 36914 ft | 421 kts | 243° |
| 2026-05-06 21:38 | 39.19257 | -7.29044 | 36907 ft | 422 kts | 242° |
| 2026-05-06 21:38 | 39.16499 | -7.35738 | 36911 ft | 422 kts | 242° |
| 2026-05-06 21:39 | 39.13739 | -7.42429 | 36913 ft | 423 kts | 242° |
| 2026-05-06 21:39 | 39.11002 | -7.49087 | 36903 ft | 423 kts | 242° |
| 2026-05-06 21:40 | 39.08254 | -7.55781 | 36918 ft | 423 kts | 242° |
| 2026-05-06 21:40 | 39.05503 | -7.62470 | 36925 ft | 423 kts | 242° |
| 2026-05-06 21:41 | 39.02784 | -7.69189 | 36924 ft | 423 kts | 243° |
| 2026-05-06 21:41 | 39.00202 | -7.75993 | 36923 ft | 423 kts | 244° |
| 2026-05-06 21:42 | 38.97649 | -7.82817 | 36928 ft | 423 kts | 244° |
| 2026-05-06 21:42 | 38.95069 | -7.89620 | 36928 ft | 423 kts | 244° |
| 2026-05-06 21:43 | 38.92466 | -7.96412 | 36934 ft | 423 kts | 244° |
| 2026-05-06 21:43 | 38.91175 | -7.99765 | 36675 ft | 416 kts | 243° |
| 2026-05-06 21:43 | 38.89651 | -8.02880 | 36260 ft | 410 kts | 232° |
| 2026-05-06 21:44 | 38.87847 | -8.05681 | 35825 ft | 405 kts | 231° |
| 2026-05-06 21:44 | 38.86057 | -8.08442 | 35384 ft | 400 kts | 231° |
| 2026-05-06 21:44 | 38.84289 | -8.11169 | 34974 ft | 395 kts | 231° |
| 2026-05-06 21:44 | 38.82542 | -8.13862 | 34539 ft | 390 kts | 231° |
| 2026-05-06 21:45 | 38.80814 | -8.16523 | 34131 ft | 385 kts | 231° |
| 2026-05-06 21:45 | 38.79107 | -8.19152 | 33695 ft | 381 kts | 231° |
| 2026-05-06 21:45 | 38.77419 | -8.21748 | 33218 ft | 377 kts | 231° |
| 2026-05-06 21:45 | 38.75756 | -8.24303 | 32682 ft | 370 kts | 230° |
| 2026-05-06 21:46 | 38.74119 | -8.26820 | 31880 ft | 364 kts | 230° |
| 2026-05-06 21:46 | 38.72511 | -8.29294 | 31114 ft | 358 kts | 230° |
| 2026-05-06 21:46 | 38.70945 | -8.31702 | 30375 ft | 353 kts | 230° |
| 2026-05-06 21:46 | 38.69386 | -8.34095 | 29601 ft | 347 kts | 229° |
| 2026-05-06 21:47 | 38.67848 | -8.36450 | 28721 ft | 343 kts | 230° |
| 2026-05-06 21:47 | 38.66323 | -8.38783 | 27808 ft | 340 kts | 230° |
| 2026-05-06 21:47 | 38.64808 | -8.41097 | 26965 ft | 338 kts | 229° |
| 2026-05-06 21:47 | 38.63304 | -8.43394 | 26145 ft | 335 kts | 230° |
| 2026-05-06 21:48 | 38.61812 | -8.45674 | 25350 ft | 333 kts | 230° |
| 2026-05-06 21:48 | 38.60327 | -8.47944 | 24574 ft | 331 kts | 230° |
| 2026-05-06 21:48 | 38.58857 | -8.50188 | 23826 ft | 329 kts | 230° |
| 2026-05-06 21:48 | 38.57392 | -8.52420 | 23231 ft | 320 kts | 230° |
| 2026-05-06 21:49 | 38.56000 | -8.54537 | 22879 ft | 305 kts | 230° |
| 2026-05-06 21:49 | 38.54644 | -8.56596 | 22287 ft | 299 kts | 230° |
| 2026-05-06 21:49 | 38.53300 | -8.58608 | 21650 ft | 296 kts | 229° |
| 2026-05-06 21:49 | 38.51972 | -8.60560 | 21039 ft | 293 kts | 229° |
| 2026-05-06 21:50 | 38.50632 | -8.62518 | 20429 ft | 291 kts | 229° |
| 2026-05-06 21:50 | 38.49303 | -8.64458 | 19842 ft | 289 kts | 229° |
| 2026-05-06 21:50 | 38.47984 | -8.66386 | 19265 ft | 287 kts | 229° |
| 2026-05-06 21:50 | 38.46675 | -8.68301 | 18723 ft | 285 kts | 229° |
| 2026-05-06 21:51 | 38.45375 | -8.70204 | 18167 ft | 283 kts | 229° |
| 2026-05-06 21:51 | 38.44085 | -8.72096 | 17564 ft | 281 kts | 229° |
| 2026-05-06 21:51 | 38.42806 | -8.73971 | 16982 ft | 279 kts | 229° |
| 2026-05-06 21:51 | 38.41538 | -8.75828 | 16432 ft | 277 kts | 229° |
| 2026-05-06 21:52 | 38.40292 | -8.77649 | 15878 ft | 275 kts | 229° |
| 2026-05-06 21:52 | 38.39039 | -8.79481 | 15344 ft | 274 kts | 229° |
| 2026-05-06 21:52 | 38.37786 | -8.81310 | 14820 ft | 272 kts | 229° |
| 2026-05-06 21:52 | 38.36549 | -8.83118 | 14314 ft | 270 kts | 229° |
| 2026-05-06 21:53 | 38.35325 | -8.84905 | 13880 ft | 266 kts | 229° |
| 2026-05-06 21:53 | 38.34129 | -8.86704 | 13256 ft | 266 kts | 236° |
| 2026-05-06 21:53 | 38.33490 | -8.88878 | 12691 ft | 265 kts | 265° |
| 2026-05-06 21:53 | 38.33812 | -8.91174 | 12110 ft | 268 kts | 295° |
| 2026-05-06 21:54 | 38.34983 | -8.93017 | 11541 ft | 269 kts | 315° |
| 2026-05-06 21:54 | 38.36348 | -8.94666 | 11068 ft | 269 kts | 315° |
| 2026-05-06 21:54 | 38.37708 | -8.96320 | 10934 ft | 272 kts | 315° |
| 2026-05-06 21:54 | 38.38945 | -8.98114 | 10510 ft | 266 kts | 296° |
| 2026-05-06 21:55 | 38.39393 | -9.00330 | 10070 ft | 257 kts | 266° |
| 2026-05-06 21:55 | 38.38922 | -9.02449 | 9540 ft | 252 kts | 238° |
| 2026-05-06 21:55 | 38.37955 | -9.04345 | 8901 ft | 252 kts | 235° |
| 2026-05-06 21:55 | 38.36996 | -9.06171 | 8361 ft | 250 kts | 235° |
| 2026-05-06 21:56 | 38.36047 | -9.08004 | 7856 ft | 246 kts | 239° |
| 2026-05-06 21:56 | 38.35514 | -9.09988 | 7731 ft | 233 kts | 262° |
| 2026-05-06 21:56 | 38.35660 | -9.12029 | 7601 ft | 235 kts | 286° |
| 2026-05-06 21:56 | 38.36484 | -9.13826 | 7477 ft | 238 kts | 312° |
| 2026-05-06 21:57 | 38.37856 | -9.15005 | 7349 ft | 241 kts | 340° |
| 2026-05-06 21:57 | 38.39467 | -9.15594 | 7220 ft | 241 kts | 344° |
| 2026-05-06 21:57 | 38.41083 | -9.16158 | 7105 ft | 240 kts | 344° |
| 2026-05-06 21:57 | 38.42706 | -9.16732 | 6740 ft | 245 kts | 343° |
| 2026-05-06 21:58 | 38.44362 | -9.17321 | 6280 ft | 251 kts | 343° |
| 2026-05-06 21:58 | 38.46061 | -9.17927 | 5769 ft | 256 kts | 344° |
| 2026-05-06 21:58 | 38.47774 | -9.18537 | 5473 ft | 251 kts | 344° |
| 2026-05-06 21:58 | 38.49412 | -9.19120 | 5421 ft | 237 kts | 343° |
| 2026-05-06 21:59 | 38.50965 | -9.19672 | 5367 ft | 228 kts | 343° |
| 2026-05-06 21:59 | 38.52490 | -9.20217 | 5312 ft | 227 kts | 342° |
| 2026-05-06 21:59 | 38.53980 | -9.20855 | 5156 ft | 227 kts | 338° |
| 2026-05-06 21:59 | 38.55439 | -9.21615 | 4822 ft | 226 kts | 336° |
| 2026-05-06 22:00 | 38.56892 | -9.22396 | 4507 ft | 226 kts | 336° |
| 2026-05-06 22:00 | 38.58343 | -9.23154 | 4194 ft | 225 kts | 343° |
| 2026-05-06 22:00 | 38.59878 | -9.23255 | 3982 ft | 220 kts | 11° |
| 2026-05-06 22:00 | 38.61274 | -9.22588 | 3942 ft | 209 kts | 21° |
| 2026-05-06 22:01 | 38.62624 | -9.21867 | 3472 ft | 218 kts | 20° |
| 2026-05-06 22:01 | 38.64040 | -9.21114 | 3086 ft | 221 kts | 20° |
| 2026-05-06 22:01 | 38.65463 | -9.20356 | 2765 ft | 221 kts | 20° |
| 2026-05-06 22:01 | 38.66875 | -9.19603 | 2458 ft | 216 kts | 19° |
| 2026-05-06 22:02 | 38.68222 | -9.18883 | 2173 ft | 204 kts | 19° |
| 2026-05-06 22:02 | 38.69466 | -9.18219 | 1927 ft | 183 kts | 19° |
| 2026-05-06 22:02 | 38.70586 | -9.17621 | 1674 ft | 166 kts | 19° |
| 2026-05-06 22:02 | 38.71597 | -9.17082 | 1467 ft | 152 kts | 19° |
| 2026-05-06 22:03 | 38.72535 | -9.16582 | 1273 ft | 140 kts | 20° |
| 2026-05-06 22:03 | 38.73418 | -9.16111 | 1068 ft | 133 kts | 17° |
| 2026-05-06 22:03 | 38.74262 | -9.15661 | 893 ft | 130 kts | 19° |
| 2026-05-06 22:03 | 38.75105 | -9.15211 | 724 ft | 131 kts | 19° |
| 2026-05-06 22:04 | 38.75943 | -9.14764 | 530 ft | 130 kts | 17° |
| 2026-05-06 22:04 | 38.76770 | -9.14315 | 377 ft | 130 kts | 19° |
| 2026-05-06 22:04 | 38.77543 | -9.13925 | 366 ft | 100 kts | 15° |
| 2026-05-06 22:04 | 38.78037 | -9.13652 | 366 ft | 51 kts | 24° |
| 2026-05-06 22:05 | 38.78217 | -9.13542 | 373 ft | 20 kts | 37° |
| 2026-05-06 22:05 | 38.78213 | -9.13474 | 365 ft | 7 kts | 140° |
| 2026-05-06 22:05 | 38.78179 | -9.13457 | 366 ft | 8 kts | 167° |
| 2026-05-06 22:06 | 38.78165 | -9.13453 | 363 ft | 8 kts | 167° |
| 2026-05-06 22:06 | 38.78103 | -9.13436 | 361 ft | 10 kts | 169° |
| 2026-05-06 22:06 | 38.78026 | -9.13416 | 357 ft | 13 kts | 168° |
| 2026-05-06 22:06 | 38.77929 | -9.13391 | 354 ft | 16 kts | 168° |
| 2026-05-06 22:07 | 38.77812 | -9.13359 | 346 ft | 18 kts | 168° |
| 2026-05-06 22:07 | 38.77677 | -9.13323 | 338 ft | 19 kts | 171° |
| 2026-05-06 22:07 | 38.77605 | -9.13301 | 336 ft | 6 kts | 126° |
| 2026-05-06 22:07 | 38.77601 | -9.13250 | 336 ft | 5 kts | 83° |
| 2026-05-06 22:08 | 38.77608 | -9.13206 | 337 ft | 5 kts | 78° |
| 2026-05-06 22:08 | 38.77611 | -9.13190 | 333 ft | 0 kts | 78° |